Johann Essberger — CQKG — position and weather

sailwx.info

Track history (hours):
 
Tides and Currents Weather Stations Pressure Air Temp Water Temp Dewpoint Dewpoint Depression Visibility Wind Speed Wind Dir Waves Ship Positions

Johann Essberger

Last reported at 2015-Jan-24 21:31 UTC. Time now 2015-Jan-25 10:18 UTC.
Position N 53°39' E 009°31'.

Length 98 m; draft 5.9 m.

Type: Ship (hazmat cat B). MMSI: 255804460.

Date/timePositionNaut miles runAvg speedWind from/ knotsBaromVisibWave heightAir tempDewpointWater temp
2015-Jan-24 21:31N 53°39' E 009°31'1 1.4
2015-Jan-24 20:33N 53°40' E 009°30'1010.3
2015-Jan-24 19:33N 53°49' E 009°22'1010.3
2015-Jan-24 18:33N 53°52' E 009°05'1212.3
2015-Jan-24 17:33N 53°52' E 008°44'1111.4
2015-Jan-24 16:33N 53°58' E 008°29'1312.8
2015-Jan-24 15:33N 53°59' E 008°07'1211.6
2015-Jan-24 14:33N 53°56' E 007°48'2512.3
2015-Jan-24 12:32N 53°51' E 007°07'2912.9
2015-Jan-24 10:18N 53°44' E 006°20'1013.0
2015-Jan-24 09:33N 53°41' E 006°04'1313.0
2015-Jan-24 08:33N 53°37' E 005°43'1313.3
2015-Jan-24 07:33N 53°33' E 005°22'1313.1
2015-Jan-24 06:33N 53°28' E 005°01'1212.4
2015-Jan-24 05:33N 53°23' E 004°42'1711.6
2015-Jan-24 04:06N 53°08' E 004°29'611.3
2015-Jan-24 03:33N 53°03' E 004°23'1111.1
2015-Jan-24 02:33N 52°53' E 004°16'1111.0
2015-Jan-24 01:33N 52°44' E 004°05'1110.8
2015-Jan-24 00:33N 52°36' E 003°53'2310.0
2015-Jan-23 22:14N 52°15' E 003°35'710.1
2015-Jan-23 21:32N 52°09' E 003°30'1110.7
2015-Jan-23 20:32N 51°59' E 003°23'1111.7
2015-Jan-23 19:33N 51°48' E 003°16'1110.6
2015-Jan-23 18:29N 51°38' E 003°22'1415.2
2015-Jan-23 17:34N 51°26' E 003°35'1211.9
2015-Jan-23 16:33N 51°21' E 003°52'7 6.8
2015-Jan-23 15:34N 51°23' E 004°03'9 8.7
2015-Jan-23 14:33N 51°20' E 004°16'4 4.3
2015-Jan-23 13:34N 51°17' E 004°20'0 0.3
2015-Jan-23 12:33N 51°16' E 004°20'1 1.3
2015-Jan-23 11:32N 51°16' E 004°22'0 0.0
2015-Jan-23 07:25N 51°16' E 004°22'2 2.3
2015-Jan-23 06:33N 51°17' E 004°20'4 3.9
2015-Jan-23 05:33N 51°21' E 004°17'1 1.0
2015-Jan-23 04:33N 51°20' E 004°16'2 1.8
2015-Jan-23 03:33N 51°18' E 004°17'1 0.0
2015-Jan-22 10:34N 51°18' E 004°16'8 7.4
2015-Jan-22 09:31N 51°22' E 004°06'7 6.8
2015-Jan-22 08:33N 51°22' E 003°55'9 9.2
2015-Jan-22 07:33N 51°25' E 003°42'8 8.5
2015-Jan-22 06:33N 51°29' E 003°29'1211.9
2015-Jan-22 05:33N 51°39' E 003°19'7 1.3
2015-Jan-22 00:28N 51°46' E 003°18'0 0.0
2015-Jan-21 21:27N 51°46' E 003°18'0 0.0
2015-Jan-21 20:33N 51°46' E 003°18'0 0.0
2015-Jan-21 19:30N 51°46' E 003°18'0 0.1
2015-Jan-21 18:30N 51°46' E 003°18'0 0.0
2015-Jan-21 17:33N 51°46' E 003°18'0 0.0
2015-Jan-21 16:33N 51°46' E 003°18'0 0.0
2015-Jan-21 14:06N 51°46' E 003°19'0 0.0
2015-Jan-21 12:25N 51°46' E 003°19'3 3.3
2015-Jan-21 11:27N 51°46' E 003°13'5410.7
2015-Jan-21 06:23N 52°26' E 002°13'911.0
2015-Jan-21 05:33N 52°34' E 002°07'1010.3
2015-Jan-21 04:33N 52°44' E 001°60'9 9.2
2015-Jan-21 03:34N 52°50' E 001°48'9 8.8
2015-Jan-21 02:34N 52°55' E 001°37'9 8.8
2015-Jan-21 01:34N 53°02' E 001°27'9 9.3
2015-Jan-21 00:33N 53°10' E 001°21'39 9.1
2015-Jan-20 20:15N 53°43' E 000°45'710.0
2015-Jan-20 19:32N 53°49' E 000°38'1110.8
2015-Jan-20 18:33N 53°58' E 000°28'1111.2
2015-Jan-20 17:33N 54°07' E 000°18'1211.8
2015-Jan-20 16:34N 54°16' E 000°04'1313.2
2015-Jan-20 15:34N 54°25' W 000°12'1313.3
2015-Jan-20 14:33N 54°34' W 000°29'1313.3
2015-Jan-20 13:33N 54°38' W 000°51'7 6.3
2015-Jan-20 12:22N 54°40' W 001°03'0 0.0
2015-Jan-20 11:28N 54°40' W 001°03'0 0.0
2015-Jan-20 10:25N 54°40' W 001°03'0 0.1
2015-Jan-20 09:31N 54°40' W 001°03'0 0.0
2015-Jan-20 08:31N 54°40' W 001°03'0 0.0
2015-Jan-20 07:13N 54°40' W 001°03'0 0.1
2015-Jan-20 06:31N 54°40' W 001°03'0 0.0
2015-Jan-20 05:31N 54°40' W 001°03'0 0.0
2015-Jan-20 04:28N 54°40' W 001°03'0 0.0
2015-Jan-20 03:28N 54°40' W 001°03'0 0.0
2015-Jan-20 02:25N 54°40' W 001°03'0 0.0
2015-Jan-20 01:25N 54°40' W 001°03'0 0.0
2015-Jan-20 00:31N 54°40' W 001°03'0 0.0
2015-Jan-19 23:31N 54°40' W 001°03'0 0.0
2015-Jan-19 22:31N 54°40' W 001°03'0 0.1
2015-Jan-19 21:31N 54°40' W 001°03'0 0.0
2015-Jan-19 20:31N 54°40' W 001°03'0 0.0
2015-Jan-19 19:31N 54°40' W 001°03'0 0.0
2015-Jan-19 18:31N 54°40' W 001°03'0 0.0
2015-Jan-19 17:31N 54°40' W 001°03'0 0.0
2015-Jan-19 16:31N 54°40' W 001°03'0 0.0
2015-Jan-19 15:31N 54°40' W 001°03'0 0.0
2015-Jan-19 14:28N 54°40' W 001°03'0 0.0
2015-Jan-19 13:31N 54°40' W 001°03'0 0.0
2015-Jan-19 12:31N 54°40' W 001°03'0 0.0
2015-Jan-19 11:31N 54°40' W 001°03'0 0.0
2015-Jan-19 10:31N 54°40' W 001°03'0 0.1
2015-Jan-19 09:31N 54°40' W 001°03'0 0.0
2015-Jan-19 08:31N 54°40' W 001°03'0 0.0
2015-Jan-19 07:25N 54°40' W 001°03'0 0.1
2015-Jan-19 06:31N 54°40' W 001°03'0 0.0
2015-Jan-19 05:28N 54°40' W 001°03'0 0.0
2015-Jan-19 04:31N 54°40' W 001°03'0 0.0
2015-Jan-19 03:31N 54°40' W 001°03'0 0.0
2015-Jan-19 02:31N 54°40' W 001°03'0 0.0
2015-Jan-19 01:31N 54°40' W 001°03'0 0.0
2015-Jan-19 00:31N 54°40' W 001°03'0 0.0
2015-Jan-18 23:28N 54°40' W 001°03'0 0.0
2015-Jan-18 22:31N 54°40' W 001°03'0 0.0
2015-Jan-18 21:31N 54°40' W 001°03'0 0.0
2015-Jan-18 20:31N 54°40' W 001°03'0 0.0
2015-Jan-18 19:31N 54°40' W 001°03'0 0.0
2015-Jan-18 18:31N 54°40' W 001°03'0 0.0
2015-Jan-18 17:31N 54°40' W 001°03'0 0.0
2015-Jan-18 16:31N 54°40' W 001°03'0 0.1
2015-Jan-18 15:31N 54°40' W 001°03'0 0.0
2015-Jan-18 14:31N 54°40' W 001°03'0 0.0
2015-Jan-18 13:31N 54°40' W 001°03'0 0.0
2015-Jan-18 12:04N 54°40' W 001°03'0 0.0
2015-Jan-18 11:31N 54°40' W 001°03'0 0.0
2015-Jan-18 10:22N 54°40' W 001°03'0 0.0
2015-Jan-18 09:22N 54°40' W 001°03'0 0.0
2015-Jan-18 08:22N 54°40' W 001°03'0 0.0
2015-Jan-18 07:31N 54°40' W 001°03'0 0.0
2015-Jan-18 06:31N 54°40' W 001°03'0 0.0
2015-Jan-18 05:31N 54°40' W 001°03'0 0.0
2015-Jan-18 04:28N 54°40' W 001°03'0 0.0
2015-Jan-18 03:31N 54°40' W 001°03'0 0.0
2015-Jan-18 02:25N 54°40' W 001°03'0 0.0
2015-Jan-18 01:28N 54°40' W 001°03'0 0.0
2015-Jan-18 00:31N 54°40' W 001°03'0 0.0
2015-Jan-17 23:32N 54°40' W 001°03'0 0.0
2015-Jan-17 22:28N 54°40' W 001°03'0 0.0
2015-Jan-17 21:28N 54°40' W 001°03'0 0.0
2015-Jan-17 20:31N 54°40' W 001°03'0 0.0
2015-Jan-17 19:31N 54°40' W 001°03'0 0.0
2015-Jan-17 18:32N 54°40' W 001°03'0 0.0
2015-Jan-17 17:31N 54°40' W 001°03'0 0.0
2015-Jan-17 16:31N 54°40' W 001°03'0 0.0
2015-Jan-17 15:31N 54°40' W 001°03'0 0.0
2015-Jan-17 14:31N 54°40' W 001°03'0 0.0
2015-Jan-17 13:28N 54°40' W 001°03'0 0.0
2015-Jan-17 12:28N 54°40' W 001°03'0 0.0
2015-Jan-17 11:31N 54°40' W 001°03'0 0.0
2015-Jan-17 10:16N 54°40' W 001°03'0 0.0
2015-Jan-17 09:31N 54°40' W 001°03'0 0.0
2015-Jan-17 08:07N 54°40' W 001°03'0 0.0
2015-Jan-17 07:07N 54°40' W 001°03'0 0.0
2015-Jan-17 06:31N 54°40' W 001°03'0 0.0
2015-Jan-17 05:31N 54°40' W 001°03'0 0.0
2015-Jan-17 04:31N 54°40' W 001°03'0 0.0
2015-Jan-17 03:31N 54°40' W 001°03'0 0.0
2015-Jan-17 02:31N 54°40' W 001°03'0 0.0
2015-Jan-17 01:31N 54°40' W 001°03'0 0.0
2015-Jan-17 00:31N 54°40' W 001°03'0 0.0
2015-Jan-16 23:28N 54°40' W 001°03'0 0.0
2015-Jan-16 22:32N 54°40' W 001°03'0 0.0
2015-Jan-16 21:32N 54°40' W 001°03'4 3.9
2015-Jan-16 20:33N 54°44' W 001°02'1111.2
2015-Jan-16 19:33N 54°54' W 000°53'8 7.9
2015-Jan-16 18:33N 55°00' W 000°45'14 3.5
2015-Jan-16 14:33N 55°04' W 000°22'10 7.9
2015-Jan-16 13:18N 54°57' W 000°33'6 8.0
2015-Jan-16 12:33N 54°53' W 000°40'1211.4
2015-Jan-16 11:30N 54°43' W 000°53'7 6.8
2015-Jan-16 10:31N 54°37' W 000°48'6 6.2
2015-Jan-16 09:33N 54°35' W 000°38'5 4.6
2015-Jan-16 08:30N 54°34' W 000°30'4 4.6
2015-Jan-16 07:33N 54°31' W 000°25'5 5.0
2015-Jan-16 06:34N 54°27' W 000°19'4 4.0
2015-Jan-16 05:33N 54°24' W 000°15'4 4.5
2015-Jan-16 04:34N 54°28' W 000°20'5 4.7
2015-Jan-16 03:33N 54°32' W 000°25'5 5.4
2015-Jan-16 02:33N 54°34' W 000°33'6 6.4
2015-Jan-16 01:33N 54°36' W 000°43'7 6.5
2015-Jan-16 00:33N 54°39' W 000°54'2 1.5
2015-Jan-15 23:33N 54°39' W 000°51'4 3.7
2015-Jan-15 22:33N 54°37' W 000°45'4 3.9
2015-Jan-15 21:33N 54°36' W 000°39'5 4.3
2015-Jan-15 20:24N 54°34' W 000°31'4 5.0
2015-Jan-15 19:34N 54°32' W 000°25'5 5.2
2015-Jan-15 18:33N 54°28' W 000°19'5 5.4
2015-Jan-15 17:33N 54°23' W 000°14'5 5.5
2015-Jan-15 16:33N 54°19' W 000°09'2 2.0
2015-Jan-15 15:34N 54°17' W 000°07'4 4.5
2015-Jan-15 14:33N 54°21' W 000°11'4 4.3
2015-Jan-15 13:33N 54°24' W 000°16'2 2.4
2015-Jan-15 12:33N 54°26' W 000°18'4 4.3
2015-Jan-15 11:33N 54°23' W 000°14'4 4.0
2015-Jan-15 10:33N 54°20' W 000°09'4 4.0
2015-Jan-15 09:33N 54°16' W 000°05'5 5.2
2015-Jan-15 08:34N 54°20' W 000°11'5 5.4
2015-Jan-15 07:33N 54°25' W 000°16'5 5.1
2015-Jan-15 06:33N 54°29' W 000°21'5 4.8
2015-Jan-15 05:33N 54°33' W 000°26'5 4.8
2015-Jan-15 04:33N 54°35' W 000°34'5 5.1
2015-Jan-15 03:33N 54°37' W 000°42'6 5.5
2015-Jan-15 02:33N 54°38' W 000°51'6 5.6
2015-Jan-15 01:33N 54°39' W 001°01'1 1.3
2015-Jan-15 00:32N 54°40' W 001°03'0 0.0
2015-Jan-14 23:31N 54°40' W 001°03'0 0.0
2015-Jan-14 22:32N 54°40' W 001°03'0 0.0
2015-Jan-14 21:32N 54°40' W 001°03'  
Track history (hours):
 
Tides and Currents Weather Stations Pressure Air Temp Water Temp Dewpoint Dewpoint Depression Visibility Wind Speed Wind Dir Waves Ship Positions

Johann Essberger

Last reported at 2015-Jan-24 21:31 UTC. Time now 2015-Jan-25 10:18 UTC.
Position N 53°39' E 009°31'.

Length 98 m; draft 5.9 m.

Type: Ship (hazmat cat B). MMSI: 255804460.

Date/timePositionNaut miles runAvg speedWind from/ knotsBaromVisibWave heightAir tempDewpointWater temp
2015-Jan-24 21:31N 53°39' E 009°31'1 1.4
2015-Jan-24 20:33N 53°40' E 009°30'1010.3
2015-Jan-24 19:33N 53°49' E 009°22'1010.3
2015-Jan-24 18:33N 53°52' E 009°05'1212.3
2015-Jan-24 17:33N 53°52' E 008°44'1111.4
2015-Jan-24 16:33N 53°58' E 008°29'1312.8
2015-Jan-24 15:33N 53°59' E 008°07'1211.6
2015-Jan-24 14:33N 53°56' E 007°48'2512.3
2015-Jan-24 12:32N 53°51' E 007°07'2912.9
2015-Jan-24 10:18N 53°44' E 006°20'1013.0
2015-Jan-24 09:33N 53°41' E 006°04'1313.0
2015-Jan-24 08:33N 53°37' E 005°43'1313.3
2015-Jan-24 07:33N 53°33' E 005°22'1313.1
2015-Jan-24 06:33N 53°28' E 005°01'1212.4
2015-Jan-24 05:33N 53°23' E 004°42'1711.6
2015-Jan-24 04:06N 53°08' E 004°29'611.3
2015-Jan-24 03:33N 53°03' E 004°23'1111.1
2015-Jan-24 02:33N 52°53' E 004°16'1111.0
2015-Jan-24 01:33N 52°44' E 004°05'1110.8
2015-Jan-24 00:33N 52°36' E 003°53'2310.0
2015-Jan-23 22:14N 52°15' E 003°35'710.1
2015-Jan-23 21:32N 52°09' E 003°30'1110.7
2015-Jan-23 20:32N 51°59' E 003°23'1111.7
2015-Jan-23 19:33N 51°48' E 003°16'1110.6
2015-Jan-23 18:29N 51°38' E 003°22'1415.2
2015-Jan-23 17:34N 51°26' E 003°35'1211.9
2015-Jan-23 16:33N 51°21' E 003°52'7 6.8
2015-Jan-23 15:34N 51°23' E 004°03'9 8.7
2015-Jan-23 14:33N 51°20' E 004°16'4 4.3
2015-Jan-23 13:34N 51°17' E 004°20'0 0.3
2015-Jan-23 12:33N 51°16' E 004°20'1 1.3
2015-Jan-23 11:32N 51°16' E 004°22'0 0.0
2015-Jan-23 07:25N 51°16' E 004°22'2 2.3
2015-Jan-23 06:33N 51°17' E 004°20'4 3.9
2015-Jan-23 05:33N 51°21' E 004°17'1 1.0
2015-Jan-23 04:33N 51°20' E 004°16'2 1.8
2015-Jan-23 03:33N 51°18' E 004°17'1 0.0
2015-Jan-22 10:34N 51°18' E 004°16'8 7.4
2015-Jan-22 09:31N 51°22' E 004°06'7 6.8
2015-Jan-22 08:33N 51°22' E 003°55'9 9.2
2015-Jan-22 07:33N 51°25' E 003°42'8 8.5
2015-Jan-22 06:33N 51°29' E 003°29'1211.9
2015-Jan-22 05:33N 51°39' E 003°19'7 1.3
2015-Jan-22 00:28N 51°46' E 003°18'0 0.0
2015-Jan-21 21:27N 51°46' E 003°18'0 0.0
2015-Jan-21 20:33N 51°46' E 003°18'0 0.0
2015-Jan-21 19:30N 51°46' E 003°18'0 0.1
2015-Jan-21 18:30N 51°46' E 003°18'0 0.0
2015-Jan-21 17:33N 51°46' E 003°18'0 0.0
2015-Jan-21 16:33N 51°46' E 003°18'0 0.0
2015-Jan-21 14:06N 51°46' E 003°19'0 0.0
2015-Jan-21 12:25N 51°46' E 003°19'3 3.3
2015-Jan-21 11:27N 51°46' E 003°13'5410.7
2015-Jan-21 06:23N 52°26' E 002°13'911.0
2015-Jan-21 05:33N 52°34' E 002°07'1010.3
2015-Jan-21 04:33N 52°44' E 001°60'9 9.2
2015-Jan-21 03:34N 52°50' E 001°48'9 8.8
2015-Jan-21 02:34N 52°55' E 001°37'9 8.8
2015-Jan-21 01:34N 53°02' E 001°27'9 9.3
2015-Jan-21 00:33N 53°10' E 001°21'39 9.1
2015-Jan-20 20:15N 53°43' E 000°45'710.0
2015-Jan-20 19:32N 53°49' E 000°38'1110.8
2015-Jan-20 18:33N 53°58' E 000°28'1111.2
2015-Jan-20 17:33N 54°07' E 000°18'1211.8
2015-Jan-20 16:34N 54°16' E 000°04'1313.2
2015-Jan-20 15:34N 54°25' W 000°12'1313.3
2015-Jan-20 14:33N 54°34' W 000°29'1313.3
2015-Jan-20 13:33N 54°38' W 000°51'7 6.3
2015-Jan-20 12:22N 54°40' W 001°03'0 0.0
2015-Jan-20 11:28N 54°40' W 001°03'0 0.0
2015-Jan-20 10:25N 54°40' W 001°03'0 0.1
2015-Jan-20 09:31N 54°40' W 001°03'0 0.0
2015-Jan-20 08:31N 54°40' W 001°03'0 0.0
2015-Jan-20 07:13N 54°40' W 001°03'0 0.1
2015-Jan-20 06:31N 54°40' W 001°03'0 0.0
2015-Jan-20 05:31N 54°40' W 001°03'0 0.0
2015-Jan-20 04:28N 54°40' W 001°03'0 0.0
2015-Jan-20 03:28N 54°40' W 001°03'0 0.0
2015-Jan-20 02:25N 54°40' W 001°03'0 0.0
2015-Jan-20 01:25N 54°40' W 001°03'0 0.0
2015-Jan-20 00:31N 54°40' W 001°03'0 0.0
2015-Jan-19 23:31N 54°40' W 001°03'0 0.0
2015-Jan-19 22:31N 54°40' W 001°03'0 0.1
2015-Jan-19 21:31N 54°40' W 001°03'0 0.0
2015-Jan-19 20:31N 54°40' W 001°03'0 0.0
2015-Jan-19 19:31N 54°40' W 001°03'0 0.0
2015-Jan-19 18:31N 54°40' W 001°03'0 0.0
2015-Jan-19 17:31N 54°40' W 001°03'0 0.0
2015-Jan-19 16:31N 54°40' W 001°03'0 0.0
2015-Jan-19 15:31N 54°40' W 001°03'0 0.0
2015-Jan-19 14:28N 54°40' W 001°03'0 0.0
2015-Jan-19 13:31N 54°40' W 001°03'0 0.0
2015-Jan-19 12:31N 54°40' W 001°03'0 0.0
2015-Jan-19 11:31N 54°40' W 001°03'0 0.0
2015-Jan-19 10:31N 54°40' W 001°03'0 0.1
2015-Jan-19 09:31N 54°40' W 001°03'0 0.0
2015-Jan-19 08:31N 54°40' W 001°03'0 0.0
2015-Jan-19 07:25N 54°40' W 001°03'0 0.1
2015-Jan-19 06:31N 54°40' W 001°03'0 0.0
2015-Jan-19 05:28N 54°40' W 001°03'0 0.0
2015-Jan-19 04:31N 54°40' W 001°03'0 0.0
2015-Jan-19 03:31N 54°40' W 001°03'0 0.0
2015-Jan-19 02:31N 54°40' W 001°03'0 0.0
2015-Jan-19 01:31N 54°40' W 001°03'0 0.0
2015-Jan-19 00:31N 54°40' W 001°03'0 0.0
2015-Jan-18 23:28N 54°40' W 001°03'0 0.0
2015-Jan-18 22:31N 54°40' W 001°03'0 0.0
2015-Jan-18 21:31N 54°40' W 001°03'0 0.0
2015-Jan-18 20:31N 54°40' W 001°03'0 0.0
2015-Jan-18 19:31N 54°40' W 001°03'0 0.0
2015-Jan-18 18:31N 54°40' W 001°03'0 0.0
2015-Jan-18 17:31N 54°40' W 001°03'0 0.0
2015-Jan-18 16:31N 54°40' W 001°03'0 0.1
2015-Jan-18 15:31N 54°40' W 001°03'0 0.0
2015-Jan-18 14:31N 54°40' W 001°03'0 0.0
2015-Jan-18 13:31N 54°40' W 001°03'0 0.0
2015-Jan-18 12:04N 54°40' W 001°03'0 0.0
2015-Jan-18 11:31N 54°40' W 001°03'0 0.0
2015-Jan-18 10:22N 54°40' W 001°03'0 0.0
2015-Jan-18 09:22N 54°40' W 001°03'0 0.0
2015-Jan-18 08:22N 54°40' W 001°03'0 0.0
2015-Jan-18 07:31N 54°40' W 001°03'0 0.0
2015-Jan-18 06:31N 54°40' W 001°03'0 0.0
2015-Jan-18 05:31N 54°40' W 001°03'0 0.0
2015-Jan-18 04:28N 54°40' W 001°03'0 0.0
2015-Jan-18 03:31N 54°40' W 001°03'0 0.0
2015-Jan-18 02:25N 54°40' W 001°03'0 0.0
2015-Jan-18 01:28N 54°40' W 001°03'0 0.0
2015-Jan-18 00:31N 54°40' W 001°03'0 0.0
2015-Jan-17 23:32N 54°40' W 001°03'0 0.0
2015-Jan-17 22:28N 54°40' W 001°03'0 0.0
2015-Jan-17 21:28N 54°40' W 001°03'0 0.0
2015-Jan-17 20:31N 54°40' W 001°03'0 0.0
2015-Jan-17 19:31N 54°40' W 001°03'0 0.0
2015-Jan-17 18:32N 54°40' W 001°03'0 0.0
2015-Jan-17 17:31N 54°40' W 001°03'0 0.0
2015-Jan-17 16:31N 54°40' W 001°03'0 0.0
2015-Jan-17 15:31N 54°40' W 001°03'0 0.0
2015-Jan-17 14:31N 54°40' W 001°03'0 0.0
2015-Jan-17 13:28N 54°40' W 001°03'0 0.0
2015-Jan-17 12:28N 54°40' W 001°03'0 0.0
2015-Jan-17 11:31N 54°40' W 001°03'0 0.0
2015-Jan-17 10:16N 54°40' W 001°03'0 0.0
2015-Jan-17 09:31N 54°40' W 001°03'0 0.0
2015-Jan-17 08:07N 54°40' W 001°03'0 0.0
2015-Jan-17 07:07N 54°40' W 001°03'0 0.0
2015-Jan-17 06:31N 54°40' W 001°03'0 0.0
2015-Jan-17 05:31N 54°40' W 001°03'0 0.0
2015-Jan-17 04:31N 54°40' W 001°03'0 0.0
2015-Jan-17 03:31N 54°40' W 001°03'0 0.0
2015-Jan-17 02:31N 54°40' W 001°03'0 0.0
2015-Jan-17 01:31N 54°40' W 001°03'0 0.0
2015-Jan-17 00:31N 54°40' W 001°03'0 0.0
2015-Jan-16 23:28N 54°40' W 001°03'0 0.0
2015-Jan-16 22:32N 54°40' W 001°03'0 0.0
2015-Jan-16 21:32N 54°40' W 001°03'4 3.9
2015-Jan-16 20:33N 54°44' W 001°02'1111.2
2015-Jan-16 19:33N 54°54' W 000°53'8 7.9
2015-Jan-16 18:33N 55°00' W 000°45'14 3.5
2015-Jan-16 14:33N 55°04' W 000°22'10 7.9
2015-Jan-16 13:18N 54°57' W 000°33'6 8.0
2015-Jan-16 12:33N 54°53' W 000°40'1211.4
2015-Jan-16 11:30N 54°43' W 000°53'7 6.8
2015-Jan-16 10:31N 54°37' W 000°48'6 6.2
2015-Jan-16 09:33N 54°35' W 000°38'5 4.6
2015-Jan-16 08:30N 54°34' W 000°30'4 4.6
2015-Jan-16 07:33N 54°31' W 000°25'5 5.0
2015-Jan-16 06:34N 54°27' W 000°19'4 4.0
2015-Jan-16 05:33N 54°24' W 000°15'4 4.5
2015-Jan-16 04:34N 54°28' W 000°20'5 4.7
2015-Jan-16 03:33N 54°32' W 000°25'5 5.4
2015-Jan-16 02:33N 54°34' W 000°33'6 6.4
2015-Jan-16 01:33N 54°36' W 000°43'7 6.5
2015-Jan-16 00:33N 54°39' W 000°54'2 1.5
2015-Jan-15 23:33N 54°39' W 000°51'4 3.7
2015-Jan-15 22:33N 54°37' W 000°45'4 3.9
2015-Jan-15 21:33N 54°36' W 000°39'5 4.3
2015-Jan-15 20:24N 54°34' W 000°31'4 5.0
2015-Jan-15 19:34N 54°32' W 000°25'5 5.2
2015-Jan-15 18:33N 54°28' W 000°19'5 5.4
2015-Jan-15 17:33N 54°23' W 000°14'5 5.5
2015-Jan-15 16:33N 54°19' W 000°09'2 2.0
2015-Jan-15 15:34N 54°17' W 000°07'4 4.5
2015-Jan-15 14:33N 54°21' W 000°11'4 4.3
2015-Jan-15 13:33N 54°24' W 000°16'2 2.4
2015-Jan-15 12:33N 54°26' W 000°18'4 4.3
2015-Jan-15 11:33N 54°23' W 000°14'4 4.0
2015-Jan-15 10:33N 54°20' W 000°09'4 4.0
2015-Jan-15 09:33N 54°16' W 000°05'5 5.2
2015-Jan-15 08:34N 54°20' W 000°11'5 5.4
2015-Jan-15 07:33N 54°25' W 000°16'5 5.1
2015-Jan-15 06:33N 54°29' W 000°21'5 4.8
2015-Jan-15 05:33N 54°33' W 000°26'5 4.8
2015-Jan-15 04:33N 54°35' W 000°34'5 5.1
2015-Jan-15 03:33N 54°37' W 000°42'6 5.5
2015-Jan-15 02:33N 54°38' W 000°51'6 5.6
2015-Jan-15 01:33N 54°39' W 001°01'1 1.3
2015-Jan-15 00:32N 54°40' W 001°03'0 0.0
2015-Jan-14 23:31N 54°40' W 001°03'0 0.0
2015-Jan-14 22:32N 54°40' W 001°03'0 0.0
2015-Jan-14 21:32N 54°40' W 001°03'  

Dump ship's entire track history